Time;durP1;ratioP1;P1;durP2;ratioP2;P2;SDS_P1;SDS_P2;PMS_P1;PMS_P2;Temp;Humidity;BMP_temperature;BMP_pressure;BME280_temperature;BME280_humidity;BME280_pressure;Samples;Min_cycle;Max_cycle;Signal;HPM_P1;HPM_P2
2022/03/05 00:02:17;;;;;;;11.63;5.03;;;5.10;82.40;;;;;;5010990;28;20080;-70
2022/03/05 00:04:43;;;;;;;11.23;5.20;;;5.10;82.70;;;;;;5010867;28;20030;-70
2022/03/05 00:07:09;;;;;;;15.02;5.57;;;5.10;82.90;;;;;;4993359;28;20133;-70
2022/03/05 00:09:34;;;;;;;8.95;5.53;;;5.00;82.80;;;;;;5011080;28;20037;-71
2022/03/05 00:12:00;;;;;;;9.35;5.00;;;5.00;82.80;;;;;;5010846;28;20033;-71
2022/03/05 00:14:25;;;;;;;9.43;5.28;;;5.00;83.30;;;;;;5010726;28;20122;-71
2022/03/05 00:16:51;;;;;;;14.13;5.15;;;5.00;82.50;;;;;;5010650;28;20096;-71
2022/03/05 00:19:17;;;;;;;9.40;4.75;;;5.10;82.00;;;;;;5010782;28;20029;-70
2022/03/05 00:21:42;;;;;;;12.25;5.25;;;5.00;83.10;;;;;;5010730;28;20101;-70
2022/03/05 00:24:08;;;;;;;10.30;5.07;;;5.00;82.90;;;;;;5011114;28;20437;-69
2022/03/05 00:26:34;;;;;;;11.15;5.72;;;5.00;83.30;;;;;;5010633;28;20382;-72
2022/03/05 00:28:59;;;;;;;20.48;6.15;;;4.80;83.50;;;;;;5010407;28;20040;-72
2022/03/05 00:31:25;;;;;;;10.25;5.03;;;4.80;83.60;;;;;;5010347;28;20022;-72
2022/03/05 00:33:50;;;;;;;12.88;5.95;;;4.80;83.60;;;;;;5010323;28;20061;-71
2022/03/05 00:36:16;;;;;;;15.05;6.00;;;4.90;83.10;;;;;;5010819;28;20060;-71
2022/03/05 00:38:41;;;;;;;10.05;5.60;;;4.90;82.50;;;;;;5010542;28;20046;-71
2022/03/05 00:41:08;;;;;;;13.80;6.25;;;4.90;82.20;;;;;;5010569;28;20096;-72
2022/03/05 00:43:34;;;;;;;11.07;5.80;;;4.90;82.10;;;;;;5010385;28;20026;-71
2022/03/05 00:46:00;;;;;;;10.68;5.30;;;4.90;82.20;;;;;;5012903;28;20471;-70
2022/03/05 00:48:26;;;;;;;12.93;5.28;;;4.70;83.10;;;;;;5014990;28;20036;-71
2022/03/05 00:50:51;;;;;;;12.90;5.43;;;4.50;83.60;;;;;;5014347;28;20033;-70
2022/03/05 00:53:18;;;;;;;12.02;5.40;;;4.40;84.20;;;;;;5014406;28;20063;-70
2022/03/05 00:55:44;;;;;;;14.05;6.10;;;4.40;84.00;;;;;;5014409;28;20026;-70
2022/03/05 00:58:10;;;;;;;10.63;6.07;;;4.40;84.00;;;;;;4996753;28;20041;-71
2022/03/05 01:00:35;;;;;;;11.25;5.40;;;4.50;83.50;;;;;;5014571;28;20038;-71
2022/03/05 01:03:01;;;;;;;9.55;5.50;;;4.50;84.00;;;;;;4996808;28;20103;-71
2022/03/05 01:05:26;;;;;;;11.55;5.68;;;4.40;84.30;;;;;;5014071;28;20360;-71
2022/03/05 01:07:52;;;;;;;15.88;4.82;;;4.20;84.40;;;;;;5014144;28;20038;-71
2022/03/05 01:10:17;;;;;;;11.55;5.97;;;4.20;84.90;;;;;;5014046;28;20397;-71
2022/03/05 01:12:43;;;;;;;11.05;5.47;;;4.10;85.10;;;;;;4996510;28;20104;-71
2022/03/05 01:15:09;;;;;;;10.40;5.18;;;4.10;85.30;;;;;;5014342;28;20104;-70
2022/03/05 01:17:34;;;;;;;12.07;5.47;;;4.00;85.60;;;;;;5013955;28;20088;-71
2022/03/05 01:20:00;;;;;;;9.80;4.97;;;3.90;86.00;;;;;;5013756;28;20038;-72
2022/03/05 01:22:26;;;;;;;10.73;5.80;;;3.90;86.20;;;;;;4996337;28;20033;-71
2022/03/05 01:24:51;;;;;;;15.70;7.78;;;3.90;86.20;;;;;;4996393;28;20448;-71
2022/03/05 01:27:18;;;;;;;10.30;5.32;;;3.90;86.80;;;;;;5014144;28;20029;-72
2022/03/05 01:29:44;;;;;;;12.27;5.80;;;3.90;87.00;;;;;;5014141;28;20084;-71
2022/03/05 01:32:09;;;;;;;12.27;6.63;;;3.90;86.90;;;;;;5014050;28;20458;-71
2022/03/05 01:34:35;;;;;;;10.02;5.38;;;3.80;87.00;;;;;;5013547;28;20030;-72
2022/03/05 01:37:01;;;;;;;13.13;5.82;;;3.80;87.10;;;;;;5013199;28;20387;-70
2022/03/05 01:39:26;;;;;;;11.93;5.20;;;3.80;87.50;;;;;;5013890;28;20056;-70
2022/03/05 01:41:55;;;;;;;9.60;5.15;;;3.80;87.50;;;;;;5013606;28;20064;-70
2022/03/05 01:44:21;;;;;;;11.80;5.40;;;3.70;87.40;;;;;;5013380;28;20042;-71
2022/03/05 01:46:46;;;;;;;17.60;6.05;;;3.70;87.90;;;;;;5013358;28;20427;-72
2022/03/05 01:49:12;;;;;;;14.00;5.22;;;3.60;87.90;;;;;;4995612;28;20038;-72
2022/03/05 01:51:39;;;;;;;11.75;5.93;;;3.60;88.30;;;;;;5013059;28;20586;-71
2022/03/05 01:54:06;;;;;;;16.75;5.93;;;3.60;87.80;;;;;;5013770;28;20040;-70
2022/03/05 01:56:32;;;;;;;11.75;5.55;;;3.60;88.00;;;;;;5012736;28;20459;-70
2022/03/05 01:58:59;;;;;;;18.33;6.20;;;3.50;88.00;;;;;;5013175;28;20112;-71
2022/03/05 02:01:26;;;;;;;12.35;5.55;;;3.60;88.40;;;;;;4995808;28;20049;-71
2022/03/05 02:03:52;;;;;;;13.05;6.15;;;3.50;88.50;;;;;;4995664;28;20026;-71
2022/03/05 02:06:21;;;;;;;9.63;6.28;;;3.50;88.50;;;;;;4996101;28;20463;-72
2022/03/05 02:08:47;;;;;;;12.40;5.60;;;3.50;88.70;;;;;;5012937;28;20057;-71
2022/03/05 02:11:13;;;;;;;13.32;6.95;;;3.40;88.80;;;;;;4995690;28;20049;-71
2022/03/05 02:13:39;;;;;;;12.32;6.50;;;3.40;89.10;;;;;;5012878;28;20065;-72
2022/03/05 02:16:05;;;;;;;11.93;5.72;;;3.50;88.80;;;;;;5013018;28;20452;-72
2022/03/05 02:18:30;;;;;;;15.75;6.82;;;3.50;89.00;;;;;;5013113;28;20026;-71
2022/03/05 02:20:56;;;;;;;16.50;7.75;;;3.60;89.00;;;;;;5012777;28;20041;-71
2022/03/05 02:23:22;;;;;;;17.45;7.35;;;3.70;89.10;;;;;;5012700;28;20040;-71
2022/03/05 02:26:05;;;;;;;15.00;6.63;;;3.70;89.10;;;;;;4995424;28;20491;-71
2022/03/05 02:28:33;;;;;;;14.50;6.32;;;3.80;88.80;;;;;;5012589;28;20026;-71
2022/03/05 02:30:58;;;;;;;12.90;6.32;;;3.60;88.90;;;;;;5012512;28;20061;-70
2022/03/05 02:33:24;;;;;;;13.55;6.20;;;3.60;89.20;;;;;;5012791;28;20030;-71
2022/03/05 02:35:50;;;;;;;15.25;6.88;;;3.40;89.40;;;;;;5012076;28;20034;-72
2022/03/05 02:38:19;;;;;;;13.50;6.88;;;3.50;89.70;;;;;;5012486;28;20041;-70
2022/03/05 02:40:46;;;;;;;19.08;7.20;;;3.50;89.30;;;;;;5012439;28;20029;-70
2022/03/05 02:43:12;;;;;;;22.17;7.80;;;3.60;89.40;;;;;;5012443;28;20037;-72
2022/03/05 02:45:38;;;;;;;14.70;6.93;;;3.50;89.70;;;;;;4994970;28;20022;-71
2022/03/05 02:48:06;;;;;;;14.98;7.20;;;3.60;89.80;;;;;;5012628;28;20026;-72
2022/03/05 02:50:32;;;;;;;10.20;6.07;;;3.60;89.60;;;;;;5011989;28;20065;-71
2022/03/05 02:52:58;;;;;;;15.88;6.78;;;3.50;89.30;;;;;;5012232;28;20085;-71
2022/03/05 02:55:24;;;;;;;15.32;7.63;;;3.50;89.80;;;;;;5012119;28;20456;-71
2022/03/05 02:57:50;;;;;;;15.07;7.22;;;3.60;90.00;;;;;;5011993;28;20101;-70
2022/03/05 03:00:15;;;;;;;16.33;6.45;;;3.70;89.90;;;;;;5012393;28;20100;-71
2022/03/05 03:02:45;;;;;;;23.42;7.00;;;3.70;90.00;;;;;;4994450;28;20567;-71
2022/03/05 03:05:11;;;;;;;15.88;5.88;;;3.80;89.80;;;;;;5011865;28;20034;-71
2022/03/05 03:07:37;;;;;;;18.55;6.43;;;3.50;89.70;;;;;;5011188;28;20106;-70
2022/03/05 03:10:04;;;;;;;17.13;6.95;;;3.40;90.00;;;;;;5011790;28;20057;-71
2022/03/05 03:12:30;;;;;;;14.52;6.60;;;3.40;90.00;;;;;;4994729;28;20026;-71
2022/03/05 03:14:56;;;;;;;15.13;6.90;;;3.40;90.10;;;;;;5011821;28;20345;-72
2022/03/05 03:17:21;;;;;;;15.68;6.57;;;3.40;90.20;;;;;;5011776;28;20376;-72
2022/03/05 03:19:47;;;;;;;13.77;6.53;;;3.50;90.20;;;;;;4994565;28;20036;-70
2022/03/05 03:22:12;;;;;;;18.80;7.40;;;3.50;90.00;;;;;;5011620;28;20117;-70
2022/03/05 03:24:38;;;;;;;10.73;6.13;;;3.50;90.00;;;;;;5011487;28;20417;-71
2022/03/05 03:27:03;;;;;;;15.05;6.20;;;3.30;90.10;;;;;;5011890;28;20022;-72
2022/03/05 03:29:29;;;;;;;16.60;6.68;;;3.40;90.40;;;;;;5011330;28;20081;-71
2022/03/05 03:31:55;;;;;;;14.68;7.03;;;3.20;90.60;;;;;;4994018;28;20030;-71
2022/03/05 03:34:20;;;;;;;12.40;6.60;;;3.10;90.60;;;;;;5011175;28;20037;-71
2022/03/05 03:36:46;;;;;;;15.60;7.10;;;3.10;90.80;;;;;;5011184;28;20053;-71
2022/03/05 03:39:11;;;;;;;14.90;7.07;;;3.20;90.60;;;;;;5011898;28;20088;-71
2022/03/05 03:41:37;;;;;;;16.13;7.07;;;3.40;90.30;;;;;;5011423;28;20037;-70
2022/03/05 03:44:03;;;;;;;17.83;7.25;;;3.40;90.00;;;;;;5011616;28;20044;-71
2022/03/05 03:46:30;;;;;;;14.80;6.65;;;3.50;89.80;;;;;;5011157;28;20030;-71
2022/03/05 03:48:56;;;;;;;15.80;8.00;;;3.40;89.60;;;;;;5011308;28;20366;-72
2022/03/05 03:51:21;;;;;;;13.70;7.10;;;3.50;89.50;;;;;;5011568;28;20422;-71
2022/03/05 03:53:47;;;;;;;15.90;7.38;;;3.40;89.00;;;;;;5011159;28;20053;-71
2022/03/05 03:56:13;;;;;;;15.75;7.28;;;3.50;89.00;;;;;;4993856;28;20038;-70
2022/03/05 03:58:39;;;;;;;15.13;6.97;;;3.50;88.70;;;;;;5011165;28;20104;-70
2022/03/05 04:01:04;;;;;;;12.73;6.72;;;3.50;88.30;;;;;;5011250;28;20030;-70
2022/03/05 04:03:30;;;;;;;14.38;6.95;;;3.40;88.10;;;;;;5011468;28;20030;-71
2022/03/05 04:05:56;;;;;;;14.70;8.05;;;3.40;88.10;;;;;;5010912;28;20026;-71
2022/03/05 04:11:07;;;;;;;15.10;7.57;;;3.50;87.90;;;;;;5010895;28;20052;-71
2022/03/05 04:13:33;;;;;;;15.45;7.22;;;3.50;88.10;;;;;;5010694;28;20026;-70
2022/03/05 04:15:58;;;;;;;11.55;6.60;;;3.40;86.80;;;;;;5010619;28;20048;-71
2022/03/05 04:18:24;;;;;;;14.05;6.78;;;3.50;87.00;;;;;;5010928;28;20491;-71
2022/03/05 04:20:49;;;;;;;15.25;7.18;;;3.40;86.80;;;;;;5010729;28;20091;-72
2022/03/05 04:23:15;;;;;;;15.93;6.88;;;3.30;86.50;;;;;;5010790;28;20026;-71
2022/03/05 04:25:40;;;;;;;12.65;6.88;;;3.40;86.50;;;;;;4993067;28;20037;-71
2022/03/05 04:28:06;;;;;;;13.57;6.68;;;3.30;86.30;;;;;;5010701;28;20041;-70
2022/03/05 04:30:32;;;;;;;13.90;6.47;;;3.30;85.90;;;;;;5010866;28;20026;-70
2022/03/05 04:32:58;;;;;;;15.07;6.28;;;3.30;85.50;;;;;;4993092;28;20104;-70
2022/03/05 04:35:23;;;;;;;14.27;6.47;;;3.40;85.50;;;;;;5010332;28;20503;-70
2022/03/05 04:37:51;;;;;;;14.63;6.60;;;3.20;85.30;;;;;;5010252;28;20042;-72
2022/03/05 04:40:17;;;;;;;16.92;6.18;;;3.30;85.10;;;;;;5010322;28;20117;-71
2022/03/05 04:42:43;;;;;;;15.90;6.80;;;3.20;84.90;;;;;;5010389;28;20105;-71
2022/03/05 04:45:09;;;;;;;13.25;6.78;;;3.10;84.90;;;;;;5010789;28;20033;-71
2022/03/05 04:47:35;;;;;;;14.48;7.10;;;3.10;84.90;;;;;;5010447;28;20030;-71
2022/03/05 04:50:01;;;;;;;14.02;6.55;;;3.10;84.90;;;;;;5010411;28;20049;-71
2022/03/05 04:52:27;;;;;;;11.57;6.70;;;3.10;85.00;;;;;;5010380;28;20471;-71
2022/03/05 04:54:52;;;;;;;15.70;7.80;;;3.00;85.10;;;;;;5010530;28;20022;-70
2022/03/05 04:57:19;;;;;;;12.20;6.50;;;3.00;85.10;;;;;;5010899;28;20046;-70
2022/03/05 04:59:44;;;;;;;14.13;7.03;;;3.00;85.10;;;;;;5010365;28;20037;-71
2022/03/05 05:02:10;;;;;;;12.43;6.82;;;3.00;85.20;;;;;;5010334;28;20030;-71
2022/03/05 05:04:35;;;;;;;13.80;6.85;;;3.00;85.20;;;;;;5010238;28;20164;-72
2022/03/05 05:07:01;;;;;;;16.92;7.45;;;3.00;85.10;;;;;;5010051;28;20113;-71
2022/03/05 05:09:27;;;;;;;17.73;7.22;;;3.10;85.30;;;;;;5010540;28;20021;-71
2022/03/05 05:11:52;;;;;;;17.48;7.53;;;3.10;85.20;;;;;;5010126;28;20045;-71
2022/03/05 05:14:18;;;;;;;15.43;7.72;;;3.00;85.60;;;;;;5010073;28;20452;-72
2022/03/05 05:16:44;;;;;;;13.88;6.82;;;3.00;86.10;;;;;;4992772;28;20045;-71
2022/03/05 05:19:25;;;;;;;17.25;7.88;;;2.90;86.40;;;;;;5010053;28;20034;-71
2022/03/05 05:21:58;;;;;;;14.63;6.57;;;2.80;87.00;;;;;;4992656;28;20033;-72
2022/03/05 05:24:29;;;;;;;15.10;7.35;;;2.70;86.90;;;;;;5010502;28;20022;-71
2022/03/05 05:26:56;;;;;;;13.57;7.97;;;2.70;87.00;;;;;;4992630;28;20030;-72
2022/03/05 05:29:22;;;;;;;16.05;7.80;;;2.80;86.90;;;;;;5009906;28;20503;-72
2022/03/05 05:31:49;;;;;;;17.63;8.00;;;2.80;86.80;;;;;;4994627;28;20052;-72
2022/03/05 05:34:15;;;;;;;14.90;7.47;;;2.80;86.50;;;;;;5013718;28;20038;-72
2022/03/05 05:36:41;;;;;;;15.00;7.20;;;2.80;86.90;;;;;;4996071;28;20038;-71
2022/03/05 05:39:07;;;;;;;15.27;8.05;;;2.80;86.90;;;;;;5014001;28;20025;-70
2022/03/05 05:41:33;;;;;;;14.07;7.47;;;2.80;86.80;;;;;;5013522;28;20113;-70
2022/03/05 05:43:59;;;;;;;17.10;7.57;;;2.70;86.80;;;;;;4996135;28;20038;-70
2022/03/05 05:46:25;;;;;;;15.02;7.32;;;2.70;86.80;;;;;;5013403;28;20030;-70
2022/03/05 05:48:50;;;;;;;16.27;7.88;;;2.70;87.10;;;;;;5013166;28;20833;-70
2022/03/05 05:51:16;;;;;;;18.73;8.25;;;2.70;87.20;;;;;;5013702;28;20022;-71
2022/03/05 05:53:42;;;;;;;14.73;7.55;;;2.70;87.10;;;;;;5013279;28;20034;-71
2022/03/05 05:56:08;;;;;;;15.13;7.53;;;2.60;87.20;;;;;;5013166;28;20030;-71
2022/03/05 05:58:33;;;;;;;15.93;8.05;;;2.50;87.50;;;;;;5012929;28;20026;-71
2022/03/05 06:00:59;;;;;;;15.32;7.97;;;2.50;87.70;;;;;;5012989;28;20493;-70
2022/03/05 06:03:25;;;;;;;15.70;7.80;;;2.50;87.70;;;;;;4996035;28;20026;-72
2022/03/05 06:05:50;;;;;;;18.83;8.40;;;2.50;87.90;;;;;;5012898;28;20065;-72
2022/03/05 06:08:16;;;;;;;16.58;8.43;;;2.50;87.80;;;;;;5013050;28;20049;-71
2022/03/05 06:10:41;;;;;;;18.98;8.73;;;2.60;87.90;;;;;;4995429;28;20033;-72
2022/03/05 06:13:07;;;;;;;28.50;11.30;;;2.60;88.60;;;;;;5012852;28;20278;-71
2022/03/05 06:15:33;;;;;;;22.48;11.90;;;2.40;88.70;;;;;;4996006;28;20036;-71
2022/03/05 06:17:58;;;;;;;39.97;17.75;;;2.40;89.10;;;;;;5012828;28;20026;-71
2022/03/05 06:20:24;;;;;;;26.55;13.00;;;2.40;89.60;;;;;;5012897;28;20034;-71
2022/03/05 06:22:50;;;;;;;20.70;9.52;;;2.40;89.50;;;;;;5012713;28;20037;-71
2022/03/05 06:25:19;;;;;;;18.60;8.60;;;2.40;90.00;;;;;;5013059;28;20119;-71
2022/03/05 06:27:45;;;;;;;17.40;8.52;;;2.40;89.80;;;;;;5012653;28;20021;-71
2022/03/05 06:30:12;;;;;;;17.27;8.35;;;2.50;89.90;;;;;;5013260;28;20327;-70
2022/03/05 06:32:37;;;;;;;14.40;7.60;;;2.50;90.20;;;;;;5012424;28;20105;-70
2022/03/05 06:35:05;;;;;;;22.13;8.35;;;2.50;89.80;;;;;;5012611;28;20395;-71
2022/03/05 06:37:31;;;;;;;15.20;7.90;;;2.50;89.80;;;;;;4995043;28;20069;-72
2022/03/05 06:39:57;;;;;;;20.15;8.50;;;2.60;90.00;;;;;;5012552;28;20045;-71
2022/03/05 06:42:22;;;;;;;19.88;9.60;;;2.60;90.00;;;;;;5012821;28;20323;-72
2022/03/05 06:44:48;;;;;;;19.67;8.98;;;2.60;90.10;;;;;;5012391;28;20037;-72
2022/03/05 06:47:13;;;;;;;19.40;8.85;;;2.60;90.20;;;;;;5012298;28;20030;-71
2022/03/05 06:49:39;;;;;;;18.50;8.52;;;2.60;90.40;;;;;;5011967;28;20117;-72
2022/03/05 06:52:05;;;;;;;17.80;8.15;;;2.60;90.30;;;;;;5012175;28;20135;-74
2022/03/05 06:54:31;;;;;;;16.23;8.32;;;2.60;90.10;;;;;;5012531;28;20523;-74
2022/03/05 06:56:57;;;;;;;22.75;8.18;;;2.70;90.30;;;;;;4994713;28;20076;-73
2022/03/05 06:59:22;;;;;;;18.00;8.27;;;2.70;90.30;;;;;;5012182;28;20038;-72
2022/03/05 07:01:48;;;;;;;17.38;8.32;;;2.70;90.50;;;;;;5011926;28;20298;-73
2022/03/05 07:04:13;;;;;;;18.70;8.88;;;2.80;90.50;;;;;;5012030;28;20088;-72
2022/03/05 07:06:39;;;;;;;16.83;8.23;;;2.80;90.70;;;;;;5011728;28;20646;-73
2022/03/05 07:09:05;;;;;;;20.48;8.35;;;2.80;90.70;;;;;;5012191;28;20026;-72
2022/03/05 07:11:31;;;;;;;19.75;9.15;;;2.80;90.50;;;;;;5011667;28;20049;-73
2022/03/05 07:13:57;;;;;;;19.50;9.00;;;2.90;90.70;;;;;;5011697;28;20037;-73
2022/03/05 07:16:23;;;;;;;20.95;8.25;;;2.90;90.70;;;;;;5011587;28;20030;-73
2022/03/05 07:18:48;;;;;;;16.27;8.57;;;2.90;90.60;;;;;;4994239;28;20079;-73
2022/03/05 07:21:14;;;;;;;16.55;7.97;;;3.00;90.90;;;;;;4994678;28;20049;-73
2022/03/05 07:23:39;;;;;;;20.00;8.48;;;3.00;90.70;;;;;;5011719;28;20030;-75
2022/03/05 07:26:05;;;;;;;24.45;9.77;;;3.10;90.90;;;;;;5011728;28;20494;-74
2022/03/05 07:28:31;;;;;;;22.55;9.48;;;3.10;90.90;;;;;;4994111;28;20038;-74
2022/03/05 07:30:56;;;;;;;15.85;8.25;;;3.20;90.90;;;;;;5008640;28;20056;-73
2022/03/05 07:33:23;;;;;;;19.17;8.90;;;3.50;90.80;;;;;;5012208;28;20516;-73
2022/03/05 07:35:48;;;;;;;17.15;8.68;;;3.40;90.70;;;;;;5011648;28;20071;-74
2022/03/05 07:38:14;;;;;;;17.13;8.77;;;3.50;90.80;;;;;;4994200;28;20434;-73
2022/03/05 07:40:39;;;;;;;14.90;8.00;;;3.50;90.70;;;;;;4994150;28;20030;-73
2022/03/05 07:43:05;;;;;;;17.55;7.97;;;3.60;90.60;;;;;;5011796;28;20061;-72
2022/03/05 07:45:30;;;;;;;14.98;7.97;;;3.70;90.60;;;;;;5011633;28;20256;-74
2022/03/05 07:47:56;;;;;;;20.23;8.07;;;3.80;90.50;;;;;;5011643;28;20445;-73
2022/03/05 07:50:22;;;;;;;16.77;7.85;;;3.80;90.40;;;;;;5011493;28;20611;-73
2022/03/05 07:52:48;;;;;;;16.58;7.85;;;3.90;90.30;;;;;;5011519;28;20038;-72
2022/03/05 07:55:13;;;;;;;18.55;8.20;;;4.00;90.40;;;;;;5011202;28;20452;-73
2022/03/05 07:57:39;;;;;;;12.70;6.57;;;4.20;90.20;;;;;;5011361;28;20029;-72
2022/03/05 08:00:06;;;;;;;12.63;6.65;;;4.20;90.10;;;;;;5011450;28;20029;-73
2022/03/05 08:02:32;;;;;;;12.68;7.45;;;4.20;90.10;;;;;;5011214;28;20335;-73
2022/03/05 08:04:58;;;;;;;16.35;7.63;;;4.30;90.20;;;;;;5011220;28;20033;-72
2022/03/05 08:07:24;;;;;;;17.38;8.85;;;4.40;90.10;;;;;;5011132;28;20080;-73
2022/03/05 08:09:50;;;;;;;15.27;8.13;;;4.40;90.20;;;;;;4993676;28;20423;-73
2022/03/05 08:12:15;;;;;;;13.98;7.13;;;4.40;90.20;;;;;;5011625;28;20333;-73
2022/03/05 08:14:42;;;;;;;24.48;9.40;;;4.40;90.30;;;;;;5010749;28;20060;-73
2022/03/05 08:17:08;;;;;;;18.25;7.28;;;4.50;90.30;;;;;;5010951;28;20033;-76
2022/03/05 08:19:33;;;;;;;19.33;8.50;;;4.70;90.20;;;;;;4993481;28;20034;-76
2022/03/05 08:21:59;;;;;;;19.05;8.88;;;4.70;90.20;;;;;;4993592;28;20060;-75
2022/03/05 08:24:24;;;;;;;17.48;7.68;;;4.70;90.10;;;;;;5011343;28;20026;-77
2022/03/05 08:26:50;;;;;;;20.45;9.32;;;4.80;90.30;;;;;;5010835;28;20141;-75
2022/03/05 08:29:16;;;;;;;17.95;8.80;;;5.10;90.20;;;;;;5010678;28;20111;-73
2022/03/05 08:31:41;;;;;;;23.17;8.27;;;5.10;90.10;;;;;;5010585;28;20042;-72
2022/03/05 08:34:07;;;;;;;24.05;8.50;;;5.20;90.00;;;;;;5010506;28;20030;-73
2022/03/05 08:36:33;;;;;;;19.80;8.90;;;5.30;89.80;;;;;;4990205;28;20046;-73
2022/03/05 08:38:59;;;;;;;18.00;8.77;;;5.30;89.50;;;;;;4991032;28;20042;-72
2022/03/05 08:41:25;;;;;;;18.35;8.75;;;5.40;89.60;;;;;;4991254;28;20495;-72
2022/03/05 08:43:52;;;;;;;19.40;8.63;;;5.50;89.50;;;;;;4991484;28;20034;-72
2022/03/05 08:46:18;;;;;;;19.20;8.88;;;5.60;89.20;;;;;;4989744;28;20030;-73
2022/03/05 08:48:43;;;;;;;24.23;8.88;;;5.80;89.10;;;;;;4991370;28;20113;-74
2022/03/05 08:51:09;;;;;;;22.38;9.90;;;5.70;88.50;;;;;;4990204;28;20033;-73
2022/03/05 08:53:34;;;;;;;20.85;8.85;;;5.70;88.40;;;;;;4990984;28;20049;-73
2022/03/05 08:56:00;;;;;;;27.80;11.48;;;5.90;88.60;;;;;;4989651;28;20115;-73
2022/03/05 08:58:26;;;;;;;23.77;10.60;;;6.00;88.30;;;;;;4991124;28;20026;-74
2022/03/05 09:00:51;;;;;;;17.73;8.48;;;6.40;87.70;;;;;;4990679;28;20058;-73
2022/03/05 09:03:18;;;;;;;26.35;8.32;;;7.90;84.80;;;;;;4991416;28;20029;-75
2022/03/05 09:05:45;;;;;;;17.77;6.97;;;9.50;80.30;;;;;;4991420;28;20034;-74
2022/03/05 09:08:12;;;;;;;24.40;7.60;;;10.60;75.10;;;;;;4994801;28;20066;-74
2022/03/05 09:10:37;;;;;;;15.68;6.57;;;11.60;71.60;;;;;;4994652;28;20034;-72
2022/03/05 09:13:03;;;;;;;13.55;5.97;;;12.80;67.70;;;;;;4995019;28;20026;-72
2022/03/05 09:15:29;;;;;;;12.45;5.93;;;13.40;64.60;;;;;;4995104;28;20102;-75
2022/03/05 09:17:54;;;;;;;11.60;5.68;;;14.20;63.90;;;;;;4993589;28;20204;-75
2022/03/05 09:20:20;;;;;;;10.98;5.35;;;14.30;60.80;;;;;;4994542;28;20046;-75
2022/03/05 09:22:46;;;;;;;11.65;5.00;;;15.00;60.10;;;;;;4994537;28;20040;-74
2022/03/05 09:25:12;;;;;;;10.48;4.85;;;15.70;56.60;;;;;;4994368;28;20045;-74
2022/03/05 09:27:38;;;;;;;8.88;5.05;;;16.40;55.40;;;;;;4994641;28;20085;-73
2022/03/05 09:30:05;;;;;;;15.23;5.65;;;17.00;53.90;;;;;;4993438;28;20030;-72
2022/03/05 09:32:31;;;;;;;43.03;22.00;;;16.50;52.90;;;;;;4994284;28;20035;-72
2022/03/05 09:35:00;;;;;;;12.02;5.97;;;16.30;52.00;;;;;;4993139;28;20468;-73
2022/03/05 09:37:28;;;;;;;11.98;5.60;;;16.90;52.60;;;;;;5008815;28;20114;-73
2022/03/05 09:39:53;;;;;;;;;;;17.00;50.50;;;;;;5013968;28;20109;-74
2022/03/05 09:42:19;;;;;;;10.45;5.47;;;16.90;50.10;;;;;;5014054;28;19984;-75
2022/03/05 09:44:45;;;;;;;10.77;5.57;;;17.10;49.80;;;;;;5013315;28;20026;-74
2022/03/05 09:47:11;;;;;;;11.02;4.80;;;18.10;49.10;;;;;;4996342;28;20476;-74
2022/03/05 09:49:38;;;;;;;12.65;5.40;;;18.80;49.00;;;;;;5013621;28;20038;-75
2022/03/05 09:52:04;;;;;;;11.77;5.95;;;18.80;46.80;;;;;;5013609;28;20470;-76
2022/03/05 09:54:30;;;;;;;9.85;5.45;;;18.70;46.30;;;;;;5014337;28;20089;-75
2022/03/05 09:56:56;;;;;;;13.63;6.55;;;18.70;45.60;;;;;;5013561;28;20466;-79
2022/03/05 09:59:21;;;;;;;11.35;5.85;;;19.00;45.40;;;;;;4996104;28;20038;-73
2022/03/05 10:01:47;;;;;;;15.05;6.25;;;19.30;45.30;;;;;;5013494;28;20030;-76
2022/03/05 10:04:21;;;;;;;11.43;5.70;;;19.80;44.90;;;;;;5013215;28;20337;-75
2022/03/05 10:07:09;;;;;;;10.35;4.80;;;20.60;43.90;;;;;;4996036;28;20375;-72
2022/03/05 10:09:36;;;;;;;13.75;5.78;;;21.10;44.50;;;;;;5013390;28;20068;-74
2022/03/05 10:12:02;;;;;;;9.98;5.30;;;21.00;42.40;;;;;;5012875;28;20354;-74
2022/03/05 10:14:27;;;;;;;10.95;5.30;;;21.00;41.70;;;;;;5013151;28;20026;-74
2022/03/05 10:17:01;;;;;;;11.80;5.43;;;20.60;42.40;;;;;;5012635;28;20061;-74
2022/03/05 10:19:26;;;;;;;11.50;6.00;;;20.10;41.60;;;;;;5013043;28;20581;-75
2022/03/05 10:22:01;;;;;;;10.18;5.40;;;20.60;43.00;;;;;;4996442;28;20354;-80
2022/03/05 10:24:40;;;;;;;10.15;5.97;;;22.00;41.60;;;;;;4997493;28;20030;-76
2022/03/05 10:27:09;;;;;;;11.68;5.30;;;22.30;40.90;;;;;;5014182;28;20084;-75
2022/03/05 10:29:37;;;;;;;10.57;4.82;;;22.20;40.80;;;;;;5013312;28;20049;-75
2022/03/05 10:32:04;;;;;;;;;;;22.10;40.00;;;;;;5013885;28;20060;-76
2022/03/05 10:34:52;;;;;;;10.75;5.97;;;22.30;39.00;;;;;;5013927;28;19932;-77
2022/03/05 10:37:19;;;;;;;10.30;5.88;;;22.00;38.20;;;;;;5015136;28;20034;-78
2022/03/05 10:39:49;;;;;;;12.27;5.77;;;21.80;37.40;;;;;;5014095;28;20060;-74
2022/03/05 10:42:25;;;;;;;8.77;5.10;;;22.00;38.20;;;;;;5013061;28;20033;-75
2022/03/05 10:45:04;;;;;;;12.75;5.35;;;22.20;38.40;;;;;;5013434;28;20045;-76
2022/03/05 10:47:45;;;;;;;7.90;4.50;;;21.70;37.40;;;;;;5012832;28;20026;-76
2022/03/05 10:50:25;;;;;;;9.93;5.20;;;22.20;38.20;;;;;;5012723;28;20573;-75
2022/03/05 10:52:53;;;;;;;9.82;5.18;;;21.40;37.40;;;;;;5013209;28;20173;-74
2022/03/05 10:55:23;;;;;;;7.95;4.75;;;21.50;38.30;;;;;;4995318;28;20046;-75
2022/03/05 10:58:04;;;;;;;7.82;4.45;;;21.50;38.20;;;;;;5011779;28;20113;-76
2022/03/05 11:00:30;;;;;;;8.45;4.85;;;22.70;37.40;;;;;;5012502;28;20405;-72
2022/03/05 11:03:03;;;;;;;7.80;4.65;;;22.30;36.40;;;;;;5011887;28;20099;-75
2022/03/05 11:05:28;;;;;;;8.25;4.72;;;22.50;37.60;;;;;;5011867;28;20117;-74
2022/03/05 11:07:55;;;;;;;8.55;5.13;;;22.50;36.50;;;;;;5011601;28;20133;-75
2022/03/05 11:10:26;;;;;;;9.20;4.83;;;22.20;34.30;;;;;;5011885;28;20041;-74
2022/03/05 11:12:56;;;;;;;7.38;4.75;;;21.20;35.30;;;;;;5011611;28;20082;-76
2022/03/05 11:15:25;;;;;;;7.47;4.60;;;20.60;35.60;;;;;;5012138;28;20498;-75
2022/03/05 11:17:51;;;;;;;9.07;4.43;;;21.10;35.60;;;;;;4994255;28;20033;-74
2022/03/05 11:20:17;;;;;;;8.63;4.05;;;20.20;35.10;;;;;;5011709;28;20030;-74
2022/03/05 11:22:49;;;;;;;7.38;4.50;;;19.30;35.50;;;;;;5011611;28;20075;-75
2022/03/05 11:25:20;;;;;;;8.02;4.93;;;18.20;36.10;;;;;;5011411;28;20018;-75
2022/03/05 11:27:57;;;;;;;7.85;4.78;;;17.30;37.60;;;;;;5011493;28;20050;-76
2022/03/05 11:30:23;;;;;;;10.52;4.65;;;17.50;38.70;;;;;;4993782;28;20030;-73
2022/03/05 11:32:49;;;;;;;8.77;5.38;;;18.00;38.90;;;;;;5011386;28;20347;-75
2022/03/05 11:35:24;;;;;;;11.18;5.22;;;17.40;38.30;;;;;;5011312;28;20116;-76
2022/03/05 11:37:51;;;;;;;8.98;5.00;;;16.80;38.60;;;;;;5011224;28;20129;-76
2022/03/05 11:40:35;;;;;;;10.55;5.45;;;16.70;38.60;;;;;;5011190;28;20033;-76
2022/03/05 11:43:21;;;;;;;15.57;8.20;;;16.00;38.90;;;;;;5011257;28;20030;-74
2022/03/05 11:45:58;;;;;;;10.32;5.25;;;15.90;39.80;;;;;;5011311;28;20367;-75
2022/03/05 11:48:27;;;;;;;9.43;4.97;;;16.50;39.40;;;;;;5011561;28;20424;-77
2022/03/05 11:50:56;;;;;;;12.13;4.72;;;16.40;39.30;;;;;;4993443;28;20060;-74
2022/03/05 11:53:21;;;;;;;7.97;5.22;;;16.40;39.00;;;;;;5010762;28;20181;-74
2022/03/05 11:55:47;;;;;;;9.75;5.40;;;16.40;39.20;;;;;;5010911;28;20602;-72
2022/03/05 11:58:13;;;;;;;26.63;14.57;;;16.40;39.00;;;;;;5010816;28;20030;-72
2022/03/05 12:00:41;;;;;;;8.77;4.35;;;15.90;38.60;;;;;;5010741;28;20048;-74
2022/03/05 12:03:07;;;;;;;;;;;15.70;39.20;;;;;;4993999;28;20447;-75
2022/03/05 12:05:38;;;;;;;7.43;5.10;;;15.20;38.40;;;;;;5010607;28;20132;-74
2022/03/05 12:08:28;;;;;;;9.38;4.65;;;14.50;39.20;;;;;;5012159;28;20030;-74
2022/03/05 12:11:12;;;;;;;10.38;5.53;;;13.80;39.50;;;;;;5011184;28;20041;-75
2022/03/05 12:13:42;;;;;;;11.25;5.97;;;13.30;40.20;;;;;;5012064;28;20053;-73
2022/03/05 12:16:14;;;;;;;10.60;5.63;;;12.70;40.30;;;;;;5012250;28;20390;-76
2022/03/05 12:18:41;;;;;;;10.65;5.63;;;12.60;41.00;;;;;;5011970;28;20054;-76
2022/03/05 12:21:07;;;;;;;11.77;5.50;;;12.40;41.30;;;;;;4993850;28;20080;-78
2022/03/05 12:23:32;;;;;;;8.55;5.05;;;12.40;41.70;;;;;;4993109;28;20109;-78
2022/03/05 12:26:04;;;;;;;9.65;5.43;;;12.40;42.00;;;;;;5012247;28;20495;-79
2022/03/05 12:28:42;;;;;;;8.93;5.53;;;12.30;42.00;;;;;;5012419;28;20049;-76
2022/03/05 12:31:20;;;;;;;10.73;5.28;;;12.10;41.60;;;;;;4994060;28;20109;-77
2022/03/05 12:33:49;;;;;;;8.25;4.80;;;11.80;41.40;;;;;;5012129;28;20029;-76
2022/03/05 12:36:18;;;;;;;8.65;5.00;;;11.30;42.20;;;;;;5012937;28;20042;-76
2022/03/05 12:38:52;;;;;;;10.82;5.82;;;11.20;42.50;;;;;;5010582;28;20030;-79
2022/03/05 12:41:18;;;;;;;12.60;4.72;;;11.20;43.10;;;;;;5010005;28;20034;-76
2022/03/05 12:43:44;;;;;;;10.57;5.22;;;11.20;43.60;;;;;;5010124;28;20510;-76
2022/03/05 12:46:10;;;;;;;11.68;5.82;;;11.10;43.80;;;;;;5009910;28;20088;-79
2022/03/05 12:48:36;;;;;;;8.45;5.10;;;10.90;43.10;;;;;;5010602;28;20037;-75